Terminal Aerodrome Forecast
Issued by NWS

Home | Current Version | Previous Version | Text Only | Print | Product List | Glossary On
Versions: 1 2 3 4 5 6 7 8 9 10 11 12 13 14 15 16 17 18 19 20 21 22 23 24 25 26 27 28
778
FTUS44 KLZK 110537
TAFADF
TAF
KADF 110537Z 1106/1206 15005KT P6SM OVC050
     FM110900 16007KT P6SM OVC025
     FM111500 16009KT P6SM VCSH OVC020
     FM120000 23005KT 5SM BR VCSH OVC008=

USA.gov is the U.S. government's official web portal to all federal, state and local government web resources and services.